Time;durP1;ratioP1;P1;durP2;ratioP2;P2;SDS_P1;SDS_P2;PMS_P1;PMS_P2;Temp;Humidity;BMP_temperature;BMP_pressure;BME280_temperature;BME280_humidity;BME280_pressure;Samples;Min_cycle;Max_cycle;Signal;HPM_P1;HPM_P2
2023/01/22 00:01:17;;;;;;;13.90;7.05;;;1.40;99.90;;;;;;4951219;28;20522;-77
2023/01/22 00:03:42;;;;;;;11.43;6.70;;;1.40;99.90;;;;;;4910228;29;20066;-78
2023/01/22 00:06:09;;;;;;;10.98;6.10;;;1.40;99.90;;;;;;4948799;29;20086;-77
2023/01/22 00:08:34;;;;;;;14.07;6.72;;;1.40;99.90;;;;;;4913027;29;20122;-78
2023/01/22 00:11:00;;;;;;;10.77;5.97;;;1.40;99.90;;;;;;4938248;28;20129;-77
2023/01/22 00:13:26;;;;;;;10.40;6.40;;;1.30;99.90;;;;;;4938437;29;20439;-77
2023/01/22 00:15:55;;;;;;;12.32;6.25;;;1.40;99.90;;;;;;4955000;28;20078;-75
2023/01/22 00:18:21;;;;;;;13.40;7.32;;;1.50;99.90;;;;;;4938705;29;20047;-75
2023/01/22 00:20:47;;;;;;;13.23;7.13;;;1.50;99.90;;;;;;4928451;29;20054;-74
2023/01/22 00:23:13;;;;;;;9.82;6.55;;;1.50;99.90;;;;;;4923092;29;20051;-74
2023/01/22 00:25:39;;;;;;;14.73;6.40;;;1.50;99.90;;;;;;4922503;29;20050;-75
2023/01/22 00:28:05;;;;;;;12.13;6.60;;;1.50;99.90;;;;;;4931937;29;20044;-75
2023/01/22 00:30:30;;;;;;;11.15;5.60;;;1.40;99.90;;;;;;4941219;29;20082;-75
2023/01/22 00:32:56;;;;;;;11.38;6.60;;;1.40;99.90;;;;;;4929019;29;20039;-74
2023/01/22 00:35:22;;;;;;;12.98;6.43;;;1.40;99.90;;;;;;4938650;29;20043;-76
2023/01/22 00:37:48;;;;;;;10.35;5.65;;;1.60;99.90;;;;;;4922695;29;20064;-76
2023/01/22 00:40:14;;;;;;;8.85;6.05;;;1.40;99.90;;;;;;4938414;29;20042;-76
2023/01/22 00:42:40;;;;;;;10.75;6.28;;;1.50;99.90;;;;;;4954648;28;20132;-77
2023/01/22 00:45:06;;;;;;;12.27;6.55;;;1.50;99.90;;;;;;4932431;29;20059;-76
2023/01/22 00:47:32;;;;;;;12.43;7.03;;;1.50;99.90;;;;;;4947698;29;20043;-77
2023/01/22 00:49:58;;;;;;;11.75;6.43;;;1.50;99.90;;;;;;4938382;29;20086;-76
2023/01/22 00:52:24;;;;;;;10.73;5.82;;;1.40;99.90;;;;;;4922574;29;20058;-76
2023/01/22 00:54:49;;;;;;;10.40;6.30;;;1.40;99.90;;;;;;4954126;29;20043;-77
2023/01/22 00:57:20;;;;;;;9.43;5.82;;;1.50;99.90;;;;;;4954587;29;20043;-77
2023/01/22 00:59:46;;;;;;;12.48;7.38;;;1.50;99.90;;;;;;4923998;29;20047;-76
2023/01/22 01:02:13;;;;;;;9.77;5.70;;;1.50;99.90;;;;;;4938479;29;20043;-76
2023/01/22 01:04:38;;;;;;;12.18;6.60;;;1.50;99.90;;;;;;4938160;29;20506;-77
2023/01/22 01:07:07;;;;;;;10.75;6.28;;;1.50;99.90;;;;;;4922244;29;20043;-77
2023/01/22 01:09:33;;;;;;;9.68;5.53;;;1.40;99.90;;;;;;4923404;29;20098;-77
2023/01/22 01:11:59;;;;;;;7.95;5.50;;;1.50;99.90;;;;;;4941466;29;20083;-77
2023/01/22 01:14:25;;;;;;;8.35;5.55;;;1.50;99.90;;;;;;4941854;29;20058;-77
2023/01/22 01:16:51;;;;;;;10.40;5.80;;;1.50;99.90;;;;;;4942045;29;20095;-77
2023/01/22 01:19:19;;;;;;;13.40;6.40;;;1.50;99.90;;;;;;4941113;29;20075;-77
2023/01/22 01:21:45;;;;;;;10.20;5.90;;;1.60;99.90;;;;;;4941831;28;20126;-77
2023/01/22 01:24:11;;;;;;;9.30;4.88;;;1.60;99.90;;;;;;4925480;29;20502;-77
2023/01/22 01:26:38;;;;;;;10.70;5.80;;;1.50;99.90;;;;;;4940655;28;20047;-77
2023/01/22 01:29:05;;;;;;;10.43;4.63;;;1.60;99.90;;;;;;4907872;29;20408;-76
2023/01/22 01:31:31;;;;;;;8.55;5.25;;;1.50;99.90;;;;;;4949288;28;20062;-77
2023/01/22 01:33:57;;;;;;;8.50;5.75;;;1.60;99.90;;;;;;4939169;29;20043;-77
2023/01/22 01:36:23;;;;;;;7.97;5.18;;;1.60;99.90;;;;;;4940072;29;20047;-78
2023/01/22 01:38:50;;;;;;;8.30;5.22;;;1.70;99.90;;;;;;4973799;28;20043;-77
2023/01/22 01:41:21;;;;;;;8.20;5.00;;;1.60;99.90;;;;;;4929843;29;20057;-77
2023/01/22 01:44:15;;;;;;;11.18;5.70;;;1.60;99.90;;;;;;4931693;29;20047;-77
2023/01/22 01:46:49;;;;;;;11.80;5.43;;;1.50;99.90;;;;;;4965505;28;20127;-77
2023/01/22 01:49:36;;;;;;;7.82;4.80;;;1.50;99.90;;;;;;4924884;29;20379;-77
2023/01/22 01:52:05;;;;;;;8.63;4.63;;;1.60;99.90;;;;;;4931045;29;20046;-77
2023/01/22 01:54:31;;;;;;;6.97;4.90;;;1.50;99.90;;;;;;4941148;29;20444;-77
2023/01/22 01:57:07;;;;;;;8.68;4.97;;;1.60;99.90;;;;;;4923563;29;20054;-77
2023/01/22 01:59:33;;;;;;;8.23;5.22;;;1.50;99.90;;;;;;4922419;29;20113;-77
2023/01/22 02:02:02;;;;;;;8.75;5.05;;;1.50;99.90;;;;;;4949912;29;20787;-78
2023/01/22 02:04:28;;;;;;;7.97;4.93;;;1.70;99.90;;;;;;4926206;29;20126;-77
2023/01/22 02:06:57;;;;;;;7.05;4.35;;;1.60;99.90;;;;;;4925612;29;20130;-77
2023/01/22 02:09:23;;;;;;;7.10;4.40;;;1.60;99.90;;;;;;4941808;29;20079;-77
2023/01/22 02:11:49;;;;;;;6.68;4.25;;;1.60;99.90;;;;;;4933372;29;20422;-78
2023/01/22 02:14:17;;;;;;;8.10;3.97;;;1.60;99.90;;;;;;4941627;29;20043;-77
2023/01/22 02:16:46;;;;;;;6.25;4.20;;;1.70;99.90;;;;;;4920667;29;20043;-78
2023/01/22 02:19:11;;;;;;;8.00;4.15;;;1.60;99.90;;;;;;4941054;29;20050;-77
2023/01/22 02:21:42;;;;;;;6.18;3.95;;;1.50;99.90;;;;;;4915816;29;20040;-77
2023/01/22 02:24:13;;;;;;;6.72;4.10;;;1.60;99.90;;;;;;4906231;29;20106;-76
2023/01/22 02:26:39;;;;;;;6.80;4.00;;;1.60;99.90;;;;;;4914707;29;20773;-76
2023/01/22 02:29:06;;;;;;;7.65;5.00;;;1.60;99.90;;;;;;4923579;29;20039;-76
2023/01/22 02:31:33;;;;;;;9.00;5.22;;;1.60;99.90;;;;;;4936224;28;20504;-75
2023/01/22 02:34:00;;;;;;;7.05;4.45;;;1.70;99.90;;;;;;4924220;29;20043;-77
2023/01/22 02:36:28;;;;;;;7.93;4.90;;;1.60;99.90;;;;;;4936120;29;20062;-78
2023/01/22 02:38:54;;;;;;;7.47;4.90;;;1.60;99.90;;;;;;4944270;29;20058;-78
2023/01/22 02:41:20;;;;;;;6.88;4.20;;;1.60;99.90;;;;;;4922482;29;20044;-78
2023/01/22 02:43:45;;;;;;;5.80;3.90;;;1.80;99.90;;;;;;4965399;28;20047;-78
2023/01/22 02:46:11;;;;;;;6.53;4.13;;;1.60;99.90;;;;;;4925889;29;20035;-76
2023/01/22 02:48:38;;;;;;;7.80;4.05;;;1.60;99.90;;;;;;4919086;29;20039;-76
2023/01/22 02:51:04;;;;;;;7.78;5.00;;;1.60;99.90;;;;;;4940871;28;20035;-77
2023/01/22 02:53:30;;;;;;;7.07;4.05;;;1.70;99.90;;;;;;4942703;28;20039;-79
2023/01/22 02:55:55;;;;;;;6.70;4.68;;;1.60;99.90;;;;;;4930246;28;20047;-79
2023/01/22 02:58:21;;;;;;;6.32;4.30;;;1.60;99.90;;;;;;4943429;29;20050;-78
2023/01/22 03:00:47;;;;;;;5.65;4.05;;;1.80;99.90;;;;;;4937408;29;20043;-76
2023/01/22 03:03:15;;;;;;;6.95;3.95;;;1.70;99.90;;;;;;4921740;29;20039;-76
2023/01/22 03:05:51;;;;;;;6.70;4.05;;;1.70;99.90;;;;;;4917001;29;20040;-76
2023/01/22 03:08:17;;;;;;;5.93;4.30;;;1.60;99.90;;;;;;4926266;29;20129;-76
2023/01/22 03:10:43;;;;;;;5.68;4.07;;;1.60;99.90;;;;;;4955835;28;20653;-76
2023/01/22 03:21:21;;;;;;;6.90;4.32;;;1.60;99.90;;;;;;4933797;29;20050;-75
2023/01/22 03:23:51;;;;;;;6.53;4.18;;;1.60;99.90;;;;;;4930351;28;20059;-78
2023/01/22 03:26:21;;;;;;;8.52;4.82;;;1.60;99.90;;;;;;4939809;29;20039;-79
2023/01/22 03:28:48;;;;;;;6.32;4.60;;;1.60;99.90;;;;;;4935367;29;20050;-77
2023/01/22 03:31:14;;;;;;;7.47;4.35;;;1.60;99.90;;;;;;4933099;28;20053;-77
2023/01/22 03:33:40;;;;;;;6.45;4.53;;;1.80;99.90;;;;;;4916520;29;20046;-75
2023/01/22 03:36:08;;;;;;;7.10;3.95;;;1.60;99.90;;;;;;4938643;29;20117;-75
2023/01/22 03:38:33;;;;;;;7.22;4.38;;;1.60;99.90;;;;;;4938710;29;20547;-76
2023/01/22 03:41:04;;;;;;;6.47;4.40;;;1.90;99.90;;;;;;4939038;29;20143;-76
2023/01/22 03:43:30;;;;;;;6.10;3.80;;;1.80;99.90;;;;;;4935632;29;20468;-76
2023/01/22 03:46:01;;;;;;;6.25;4.20;;;1.70;99.90;;;;;;4938815;29;20051;-76
2023/01/22 03:48:27;;;;;;;6.93;4.15;;;1.80;99.90;;;;;;4954589;29;20043;-76
2023/01/22 03:50:53;;;;;;;7.43;4.72;;;1.70;99.90;;;;;;4938923;29;20042;-76
2023/01/22 03:53:18;;;;;;;7.35;4.68;;;1.70;99.90;;;;;;4936887;29;20043;-76
2023/01/22 03:55:54;;;;;;;6.93;4.30;;;1.70;99.90;;;;;;4931462;29;20055;-76
2023/01/22 03:58:20;;;;;;;6.28;4.25;;;1.60;99.90;;;;;;4940344;29;20134;-76
2023/01/22 04:00:47;;;;;;;6.53;3.80;;;1.70;99.90;;;;;;4918152;29;20165;-76
2023/01/22 04:03:13;;;;;;;7.30;4.60;;;1.60;99.90;;;;;;4936480;28;20050;-76
2023/01/22 04:05:45;;;;;;;6.15;4.32;;;1.60;99.90;;;;;;4917992;29;20043;-76
2023/01/22 04:08:13;;;;;;;6.57;4.00;;;1.70;99.90;;;;;;4937070;28;20078;-76
2023/01/22 04:10:42;;;;;;;;;;;1.70;99.90;;;;;;4933818;29;20149;-76
2023/01/22 04:13:10;;;;;;;7.95;4.25;;;1.70;99.90;;;;;;4949106;28;19914;-76
2023/01/22 04:15:36;;;;;;;7.90;5.20;;;1.80;99.90;;;;;;4933648;29;20117;-76
2023/01/22 04:18:05;;;;;;;6.90;4.35;;;1.60;99.90;;;;;;4919955;29;20043;-76
2023/01/22 04:20:30;;;;;;;5.60;3.58;;;1.70;99.90;;;;;;4935778;28;20051;-76
2023/01/22 04:22:56;;;;;;;5.60;3.70;;;1.70;99.90;;;;;;4951789;29;20106;-76
2023/01/22 04:25:22;;;;;;;6.72;4.05;;;1.70;99.90;;;;;;4935639;29;20059;-76
2023/01/22 04:27:48;;;;;;;6.43;3.58;;;1.70;99.90;;;;;;4952121;29;20406;-76
2023/01/22 04:30:19;;;;;;;4.72;3.28;;;1.70;99.90;;;;;;4929234;29;20048;-76
2023/01/22 04:32:45;;;;;;;6.18;3.90;;;1.70;99.90;;;;;;4951915;29;20043;-76
2023/01/22 04:35:11;;;;;;;5.78;4.00;;;1.50;99.90;;;;;;4952309;28;20098;-76
2023/01/22 04:37:36;;;;;;;5.07;3.75;;;1.60;99.90;;;;;;4945545;29;20052;-76
2023/01/22 04:40:04;;;;;;;6.28;3.83;;;1.60;99.90;;;;;;4913894;29;20126;-75
2023/01/22 04:42:31;;;;;;;6.95;3.75;;;1.60;99.90;;;;;;4892240;29;20646;-75
2023/01/22 04:45:09;;;;;;;6.55;4.00;;;1.60;99.90;;;;;;4925438;29;20438;-75
2023/01/22 04:47:39;;;;;;;6.13;3.72;;;1.60;99.90;;;;;;4950038;28;20043;-75
2023/01/22 04:50:05;;;;;;;5.53;3.70;;;1.60;99.90;;;;;;4939744;29;20065;-75
2023/01/22 04:52:31;;;;;;;5.57;3.63;;;1.70;99.90;;;;;;4928273;29;20043;-75
2023/01/22 04:54:56;;;;;;;5.20;3.45;;;1.60;99.90;;;;;;4955644;28;20539;-76
2023/01/22 04:57:22;;;;;;;5.03;3.42;;;1.60;99.90;;;;;;4937690;29;20113;-75
2023/01/22 04:59:48;;;;;;;6.05;3.95;;;1.60;99.90;;;;;;4940201;29;20480;-75
2023/01/22 05:02:14;;;;;;;5.28;3.60;;;1.70;99.90;;;;;;4939730;29;20105;-76
2023/01/22 05:04:40;;;;;;;5.72;3.60;;;1.70;99.90;;;;;;4954734;28;20075;-75
2023/01/22 05:07:05;;;;;;;4.57;3.40;;;1.70;99.90;;;;;;4926601;29;20051;-75
2023/01/22 05:09:31;;;;;;;5.13;3.25;;;1.70;99.90;;;;;;4970121;28;20054;-75
2023/01/22 05:11:57;;;;;;;8.57;3.80;;;1.70;99.90;;;;;;4934473;29;20036;-75
2023/01/22 05:14:22;;;;;;;5.45;3.60;;;1.60;99.90;;;;;;4905985;29;20043;-75
2023/01/22 05:16:51;;;;;;;7.43;4.72;;;1.50;99.90;;;;;;4953027;29;20050;-75
2023/01/22 05:19:16;;;;;;;6.10;4.32;;;1.60;99.90;;;;;;4944491;28;20381;-75
2023/01/22 05:21:42;;;;;;;5.15;3.50;;;1.60;99.90;;;;;;4953121;28;20047;-76
2023/01/22 05:24:11;;;;;;;7.32;4.40;;;1.60;99.90;;;;;;4953603;28;20472;-77
2023/01/22 05:26:37;;;;;;;6.10;3.88;;;1.60;99.90;;;;;;4939943;29;20074;-77
2023/01/22 05:29:05;;;;;;;6.60;4.10;;;1.60;99.90;;;;;;4914565;29;20058;-77
2023/01/22 05:31:31;;;;;;;6.05;3.95;;;1.70;99.90;;;;;;4934410;29;20054;-77
2023/01/22 05:33:57;;;;;;;5.15;3.65;;;1.60;99.90;;;;;;4935323;29;20472;-77
2023/01/22 05:36:23;;;;;;;5.32;3.67;;;1.70;99.90;;;;;;4918257;29;20131;-77
2023/01/22 05:38:48;;;;;;;6.05;4.18;;;1.60;99.90;;;;;;4929441;29;20056;-77
2023/01/22 05:41:14;;;;;;;4.90;3.28;;;1.50;99.90;;;;;;4928105;29;20062;-78
2023/01/22 05:43:40;;;;;;;4.97;3.40;;;1.50;99.90;;;;;;4938267;29;20047;-77
2023/01/22 05:46:06;;;;;;;5.38;3.50;;;1.50;99.90;;;;;;4920342;29;20054;-75
2023/01/22 05:48:31;;;;;;;5.95;3.70;;;1.60;99.90;;;;;;4928334;29;20420;-75
2023/01/22 05:51:02;;;;;;;5.70;3.80;;;1.60;99.90;;;;;;4950407;28;20051;-75
2023/01/22 05:53:28;;;;;;;5.68;3.72;;;1.60;99.90;;;;;;4939512;28;20071;-75
2023/01/22 05:55:54;;;;;;;5.07;3.60;;;1.70;99.90;;;;;;4935992;28;20047;-76
2023/01/22 05:58:19;;;;;;;6.80;4.05;;;1.60;99.90;;;;;;4947957;28;20039;-75
2023/01/22 06:00:45;;;;;;;6.20;3.75;;;1.60;99.90;;;;;;4916461;29;20043;-75
2023/01/22 06:03:11;;;;;;;6.75;3.67;;;1.60;99.90;;;;;;4938383;29;20050;-75
2023/01/22 06:05:37;;;;;;;5.00;3.67;;;1.60;99.90;;;;;;4938272;29;20051;-77
2023/01/22 06:08:02;;;;;;;6.90;4.20;;;1.60;99.90;;;;;;4938486;28;20050;-77
2023/01/22 06:10:28;;;;;;;5.32;3.65;;;1.50;99.90;;;;;;4926596;29;20506;-77
2023/01/22 06:12:54;;;;;;;5.07;3.63;;;1.70;99.90;;;;;;4946880;29;20102;-77
2023/01/22 06:15:20;;;;;;;5.72;3.83;;;1.60;99.90;;;;;;4938402;29;20634;-77
2023/01/22 06:17:45;;;;;;;6.97;3.70;;;1.60;99.90;;;;;;4947429;29;20045;-78
2023/01/22 06:20:11;;;;;;;5.55;3.83;;;1.60;99.90;;;;;;4938889;29;20125;-79
2023/01/22 06:22:37;;;;;;;7.15;4.90;;;1.50;99.90;;;;;;4938674;29;20110;-77
2023/01/22 06:25:03;;;;;;;5.88;3.90;;;1.60;99.90;;;;;;4934469;29;20052;-76
2023/01/22 06:27:29;;;;;;;4.85;3.60;;;1.50;99.90;;;;;;4931037;29;20061;-75
2023/01/22 06:29:54;;;;;;;4.95;3.67;;;1.60;99.90;;;;;;4922064;29;20051;-75
2023/01/22 06:32:20;;;;;;;5.38;3.60;;;1.70;99.90;;;;;;4953730;28;20043;-75
2023/01/22 06:34:46;;;;;;;6.35;4.57;;;1.60;99.90;;;;;;4953690;28;20122;-75
2023/01/22 06:37:12;;;;;;;6.05;3.80;;;1.70;99.90;;;;;;4920993;29;20042;-75
2023/01/22 06:39:37;;;;;;;4.97;3.85;;;1.70;99.90;;;;;;4912633;29;20402;-75
2023/01/22 06:42:03;;;;;;;5.63;4.18;;;1.60;99.90;;;;;;4927140;29;20047;-75
2023/01/22 06:44:29;;;;;;;5.15;3.80;;;1.60;99.90;;;;;;4935031;29;20428;-75
2023/01/22 06:46:55;;;;;;;5.55;3.47;;;1.50;99.90;;;;;;4924442;29;20054;-75
2023/01/22 06:49:20;;;;;;;5.38;3.60;;;1.60;99.90;;;;;;4937997;29;20365;-75
2023/01/22 06:51:46;;;;;;;5.95;3.97;;;1.60;99.90;;;;;;4942952;29;20436;-75
2023/01/22 06:54:12;;;;;;;5.60;3.90;;;1.60;99.90;;;;;;4925383;29;20051;-75
2023/01/22 06:56:38;;;;;;;7.07;4.40;;;1.60;99.90;;;;;;4931114;29;20051;-75
2023/01/22 06:59:04;;;;;;;5.75;4.10;;;1.60;99.90;;;;;;4920784;29;20590;-75
2023/01/22 07:01:30;;;;;;;5.05;3.75;;;1.70;99.90;;;;;;4933152;29;20047;-75
2023/01/22 07:03:55;;;;;;;5.95;4.00;;;1.70;99.90;;;;;;4935774;29;20077;-75
2023/01/22 07:06:22;;;;;;;5.78;4.13;;;1.70;99.90;;;;;;4957909;28;20043;-75
2023/01/22 07:08:48;;;;;;;6.15;4.32;;;1.70;99.90;;;;;;4949360;28;20075;-75
2023/01/22 07:11:14;;;;;;;5.43;4.00;;;1.70;99.90;;;;;;4937485;29;20130;-75
2023/01/22 07:13:41;;;;;;;4.97;3.80;;;1.60;99.90;;;;;;4954931;28;20046;-75
2023/01/22 07:16:07;;;;;;;5.30;3.50;;;1.70;99.90;;;;;;4929758;29;20058;-75
2023/01/22 07:18:33;;;;;;;6.38;4.35;;;1.70;99.90;;;;;;4953317;28;20047;-74
2023/01/22 07:21:02;;;;;;;5.47;3.90;;;1.70;99.90;;;;;;4939391;29;20051;-75
2023/01/22 07:23:28;;;;;;;4.28;3.17;;;1.70;99.90;;;;;;4944040;29;20070;-74
2023/01/22 07:25:54;;;;;;;4.75;3.05;;;1.70;99.90;;;;;;4922680;29;20046;-74
2023/01/22 07:28:20;;;;;;;4.00;2.67;;;1.80;99.90;;;;;;4954262;29;20039;-74
2023/01/22 07:30:46;;;;;;;3.95;2.78;;;1.80;99.90;;;;;;4938335;29;20412;-75
2023/01/22 07:33:12;;;;;;;4.65;3.03;;;1.70;99.90;;;;;;4954569;29;20043;-75
2023/01/22 07:35:38;;;;;;;27.45;22.65;;;1.80;99.90;;;;;;4937785;28;20039;-75
2023/01/22 07:38:04;;;;;;;7.55;5.55;;;1.80;99.90;;;;;;4935660;28;20518;-75
2023/01/22 07:40:30;;;;;;;3.60;2.40;;;1.80;99.90;;;;;;4938251;29;20078;-75
2023/01/22 07:42:55;;;;;;;3.78;2.45;;;1.80;99.90;;;;;;4938907;29;20113;-75
2023/01/22 07:45:23;;;;;;;3.38;2.38;;;1.80;99.90;;;;;;4938593;28;20051;-75
2023/01/22 07:47:55;;;;;;;4.20;2.33;;;1.80;99.90;;;;;;4938181;29;20047;-75
2023/01/22 07:50:22;;;;;;;4.05;2.20;;;1.80;99.90;;;;;;4939336;29;20073;-75
2023/01/22 07:52:48;;;;;;;3.42;3.00;;;1.90;99.90;;;;;;4938461;28;20046;-75
2023/01/22 07:55:14;;;;;;;3.30;2.35;;;1.80;99.90;;;;;;4938641;28;20130;-75
2023/01/22 07:57:40;;;;;;;3.40;2.15;;;1.90;99.90;;;;;;4919869;29;20059;-75
2023/01/22 08:00:09;;;;;;;2.80;2.05;;;2.00;99.90;;;;;;4932923;29;20051;-75
2023/01/22 08:02:38;;;;;;;4.07;2.20;;;1.90;99.90;;;;;;4939329;28;20051;-76
2023/01/22 08:05:05;;;;;;;3.67;2.30;;;1.90;99.90;;;;;;4957073;28;20051;-76
2023/01/22 08:07:30;;;;;;;4.43;2.20;;;2.00;99.90;;;;;;4933254;29;20051;-76
2023/01/22 08:09:56;;;;;;;4.10;2.83;;;2.00;99.90;;;;;;4930959;29;20447;-76
2023/01/22 08:12:22;;;;;;;3.38;2.20;;;2.00;99.90;;;;;;4910153;29;20044;-76
2023/01/22 08:14:48;;;;;;;3.63;2.30;;;2.00;99.90;;;;;;4922347;29;20298;-76
2023/01/22 08:17:14;;;;;;;3.45;2.38;;;2.00;99.90;;;;;;4954595;28;20137;-76
2023/01/22 08:19:39;;;;;;;3.20;2.30;;;2.00;99.90;;;;;;4939412;28;20047;-76
2023/01/22 08:22:05;;;;;;;3.70;2.20;;;2.00;99.90;;;;;;4926352;29;20468;-76
2023/01/22 08:24:31;;;;;;;3.63;1.98;;;2.10;99.90;;;;;;4927010;29;20809;-76
2023/01/22 08:26:57;;;;;;;3.00;2.30;;;2.00;99.90;;;;;;4939465;29;20461;-76
2023/01/22 08:29:23;;;;;;;5.07;2.40;;;2.10;99.90;;;;;;4941850;29;20043;-76
2023/01/22 08:31:49;;;;;;;3.70;2.40;;;2.10;99.90;;;;;;4942237;28;20066;-76
2023/01/22 08:34:15;;;;;;;3.47;2.30;;;2.10;99.90;;;;;;4927942;29;20047;-76
2023/01/22 08:36:41;;;;;;;2.92;1.90;;;2.10;99.90;;;;;;4937697;29;20083;-76
2023/01/22 08:39:09;;;;;;;3.20;2.30;;;2.10;99.90;;;;;;4942467;29;20473;-76
2023/01/22 08:41:35;;;;;;;;;;;2.10;99.90;;;;;;4926811;29;20062;-76
2023/01/22 08:44:00;;;;;;;4.28;3.08;;;2.10;99.90;;;;;;4988919;28;19922;-76
2023/01/22 08:46:26;;;;;;;3.58;2.20;;;2.10;99.90;;;;;;4941985;29;20039;-76
2023/01/22 08:48:52;;;;;;;4.13;2.75;;;2.10;99.90;;;;;;4942047;29;20047;-77
2023/01/22 08:51:18;;;;;;;4.43;3.13;;;2.10;99.90;;;;;;4941792;28;20039;-77
2023/01/22 08:53:44;;;;;;;4.82;2.65;;;2.20;99.90;;;;;;4926334;29;20141;-77
2023/01/22 08:56:10;;;;;;;4.60;2.65;;;2.10;99.90;;;;;;4940293;29;20405;-76
2023/01/22 08:58:35;;;;;;;4.00;2.90;;;2.10;99.90;;;;;;4943352;29;20141;-76
2023/01/22 09:01:01;;;;;;;4.15;2.70;;;2.10;99.90;;;;;;4939686;29;20054;-76
2023/01/22 09:03:27;;;;;;;4.30;3.15;;;2.10;99.90;;;;;;4958313;28;20051;-76
2023/01/22 09:05:53;;;;;;;4.82;3.22;;;2.20;99.90;;;;;;4925289;29;20134;-76
2023/01/22 09:08:20;;;;;;;4.75;3.20;;;2.10;99.90;;;;;;4925759;29;20128;-76
2023/01/22 09:10:46;;;;;;;4.55;3.35;;;2.20;99.90;;;;;;4926555;29;20126;-78
2023/01/22 09:13:12;;;;;;;4.40;3.13;;;2.10;99.90;;;;;;4926339;29;20170;-78
2023/01/22 09:15:39;;;;;;;4.18;3.05;;;2.10;99.90;;;;;;4941979;28;20067;-78
2023/01/22 09:18:04;;;;;;;4.60;3.22;;;2.20;99.90;;;;;;4940857;29;20047;-78
2023/01/22 09:20:30;;;;;;;4.57;3.40;;;2.20;99.90;;;;;;4921894;29;20468;-79
2023/01/22 09:22:56;;;;;;;5.80;3.97;;;2.20;99.90;;;;;;4941704;29;20440;-79
2023/01/22 09:25:22;;;;;;;5.55;3.80;;;2.20;99.90;;;;;;4956785;28;20047;-78
2023/01/22 09:27:48;;;;;;;6.07;4.00;;;2.10;99.90;;;;;;4941852;29;20039;-78
2023/01/22 09:30:14;;;;;;;6.50;4.20;;;2.10;99.90;;;;;;4941038;28;20360;-78
2023/01/22 09:32:40;;;;;;;6.00;4.60;;;2.20;99.90;;;;;;4921781;29;20516;-78
2023/01/22 09:35:07;;;;;;;6.13;4.75;;;2.10;99.90;;;;;;4928678;29;20055;-78
2023/01/22 09:37:33;;;;;;;8.25;5.45;;;2.10;99.90;;;;;;4942065;28;20039;-78
2023/01/22 09:39:59;;;;;;;6.15;4.90;;;2.20;99.90;;;;;;4925523;28;20054;-78
2023/01/22 09:42:39;;;;;;;5.80;4.50;;;2.20;99.90;;;;;;4939407;29;20039;-78
2023/01/22 09:45:13;;;;;;;6.75;5.03;;;2.20;99.90;;;;;;4951713;29;20055;-79
2023/01/22 09:47:44;;;;;;;7.00;4.93;;;2.30;99.90;;;;;;4921780;29;20140;-78
2023/01/22 09:50:23;;;;;;;5.90;4.30;;;2.20;99.90;;;;;;4936516;29;20059;-79
2023/01/22 09:52:50;;;;;;;6.78;4.47;;;2.20;99.90;;;;;;4936134;29;20055;-78
2023/01/22 09:55:17;;;;;;;6.15;4.40;;;2.20;99.90;;;;;;4948300;29;20051;-78
2023/01/22 09:57:45;;;;;;;6.87;4.60;;;2.20;99.90;;;;;;4950124;28;20074;-78
2023/01/22 10:00:48;;;;;;;6.35;4.47;;;2.20;99.90;;;;;;4935375;29;20424;-77
2023/01/22 10:03:32;;;;;;;6.82;5.47;;;2.20;99.90;;;;;;4946542;29;20039;-76
2023/01/22 10:06:00;;;;;;;7.50;5.30;;;2.20;99.90;;;;;;4950565;29;20047;-78
2023/01/22 10:09:14;;;;;;;7.85;5.10;;;2.20;99.90;;;;;;4953687;28;20047;-77
2023/01/22 10:11:40;;;;;;;7.10;5.05;;;2.40;99.90;;;;;;4954403;29;20040;-77
2023/01/22 10:14:08;;;;;;;5.93;4.45;;;2.40;99.90;;;;;;4940910;29;20035;-77
2023/01/22 10:16:34;;;;;;;5.88;4.05;;;2.40;99.90;;;;;;4925075;29;20133;-78
2023/01/22 10:19:04;;;;;;;7.25;5.40;;;2.40;99.90;;;;;;4956784;28;20054;-77
2023/01/22 10:21:38;;;;;;;8.02;5.22;;;2.40;99.90;;;;;;4940995;29;20054;-77
2023/01/22 10:24:04;;;;;;;7.68;5.45;;;2.30;99.90;;;;;;4934907;29;20053;-77
2023/01/22 10:26:48;;;;;;;8.13;5.53;;;2.20;99.90;;;;;;4940299;29;20051;-77
2023/01/22 10:29:23;;;;;;;7.43;5.45;;;2.30;99.90;;;;;;4938680;29;20048;-77
2023/01/22 10:31:52;;;;;;;8.65;6.22;;;2.30;99.90;;;;;;4940288;29;20059;-77
2023/01/22 10:34:34;;;;;;;7.90;5.82;;;2.30;99.90;;;;;;4940570;29;20051;-77
2023/01/22 10:37:12;;;;;;;8.75;6.10;;;2.20;99.90;;;;;;4928236;28;20039;-77
2023/01/22 10:39:58;;;;;;;7.80;5.32;;;2.10;99.90;;;;;;4923214;29;20532;-77
2023/01/22 10:42:25;;;;;;;8.70;5.95;;;2.20;99.90;;;;;;4924186;29;20054;-77
2023/01/22 10:45:14;;;;;;;7.25;5.10;;;2.20;99.90;;;;;;4913582;29;20677;-76
2023/01/22 10:47:40;;;;;;;8.95;6.53;;;2.20;99.90;;;;;;4926110;29;20444;-78
2023/01/22 10:50:15;;;;;;;7.32;4.95;;;2.20;99.90;;;;;;4937585;29;20115;-78
2023/01/22 10:52:49;;;;;;;8.48;6.00;;;2.30;99.90;;;;;;4953668;29;20097;-78
2023/01/22 10:55:22;;;;;;;9.18;6.50;;;2.30;99.90;;;;;;4933059;29;20082;-78
2023/01/22 10:57:54;;;;;;;8.57;5.80;;;2.30;99.90;;;;;;4927795;29;20043;-78
2023/01/22 11:00:23;;;;;;;9.07;6.38;;;2.40;99.90;;;;;;4913190;29;20039;-78
2023/01/22 11:02:49;;;;;;;9.43;6.10;;;2.30;99.90;;;;;;4927700;29;20055;-78
2023/01/22 11:05:20;;;;;;;9.50;6.15;;;2.40;99.90;;;;;;4922709;29;20047;-77
2023/01/22 11:08:14;;;;;;;8.57;5.80;;;2.30;99.90;;;;;;4933963;29;20047;-80
2023/01/22 11:11:01;;;;;;;8.50;6.07;;;2.30;99.90;;;;;;4943257;29;20039;-79
2023/01/22 11:13:55;;;;;;;9.75;6.65;;;2.30;99.90;;;;;;4925170;29;20113;-79
2023/01/22 11:16:22;;;;;;;9.68;6.25;;;2.30;99.90;;;;;;4950597;28;20543;-79
2023/01/22 11:19:14;;;;;;;10.82;7.32;;;2.40;99.90;;;;;;4918611;28;21825;-79
2023/01/22 11:21:45;;;;;;;10.68;6.70;;;2.20;99.90;;;;;;4930893;29;20087;-80
2023/01/22 11:24:23;;;;;;;9.43;6.63;;;2.30;99.90;;;;;;4931744;28;20051;-79
2023/01/22 11:27:33;;;;;;;11.85;7.50;;;2.30;99.90;;;;;;4942080;29;20082;-79
2023/01/22 11:30:18;;;;;;;10.60;7.13;;;2.30;99.90;;;;;;4919243;29;20078;-80
2023/01/22 11:33:30;;;;;;;9.57;6.45;;;2.30;99.90;;;;;;4936076;29;20056;-80
2023/01/22 11:36:06;;;;;;;9.27;6.63;;;2.20;99.90;;;;;;4934877;29;20039;-79
2023/01/22 11:38:45;;;;;;;9.40;7.07;;;2.30;99.90;;;;;;4914212;29;20048;-79
2023/01/22 11:41:33;;;;;;;10.23;7.43;;;2.30;99.90;;;;;;4931841;29;20043;-80
2023/01/22 11:44:05;;;;;;;12.35;7.47;;;2.40;99.90;;;;;;4934115;29;20443;-80
2023/01/22 11:46:45;;;;;;;12.70;7.28;;;2.30;99.90;;;;;;4946101;28;20051;-80
2023/01/22 11:49:36;;;;;;;10.38;6.60;;;2.40;99.90;;;;;;4918971;29;20131;-80
2023/01/22 11:52:08;;;;;;;10.40;6.63;;;2.40;99.90;;;;;;4918565;28;20050;-80
2023/01/22 11:54:41;;;;;;;9.40;6.68;;;2.40;99.90;;;;;;4932743;29;20134;-80
2023/01/22 11:57:36;;;;;;;9.85;7.18;;;2.30;99.90;;;;;;4984032;28;20350;-80
2023/01/22 12:00:36;;;;;;;12.25;8.05;;;2.40;99.90;;;;;;4911376;28;20608;-79
2023/01/22 12:03:19;;;;;;;11.32;7.60;;;2.40;99.90;;;;;;4935944;28;20130;-80
2023/01/22 12:06:20;;;;;;;11.68;8.20;;;2.40;99.90;;;;;;4938022;29;20143;-80
2023/01/22 12:09:25;;;;;;;10.70;7.72;;;2.30;99.90;;;;;;4912727;29;20043;-80
2023/01/22 12:12:03;;;;;;;10.48;6.63;;;2.30;99.90;;;;;;4940962;29;20106;-79
2023/01/22 12:14:40;;;;;;;11.07;7.30;;;2.40;99.90;;;;;;4945008;29;20134;-80
2023/01/22 12:17:27;;;;;;;10.70;7.47;;;2.40;99.90;;;;;;4954910;29;20109;-80
2023/01/22 12:20:01;;;;;;;9.43;6.85;;;2.40;99.90;;;;;;4939102;29;20055;-80
2023/01/22 12:22:29;;;;;;;10.52;7.00;;;2.50;99.90;;;;;;4938514;29;20491;-80
2023/01/22 12:25:10;;;;;;;10.80;7.20;;;2.40;99.90;;;;;;4937698;28;20118;-80
2023/01/22 12:27:39;;;;;;;11.68;7.63;;;2.40;99.90;;;;;;4947239;28;20043;-80
2023/01/22 12:30:22;;;;;;;11.15;7.50;;;2.30;99.90;;;;;;4953813;29;20063;-80
2023/01/22 12:32:53;;;;;;;11.13;7.60;;;2.50;99.90;;;;;;4948573;28;20059;-80
2023/01/22 12:35:20;;;;;;;9.25;6.70;;;2.40;99.90;;;;;;4934859;29;20142;-80
2023/01/22 12:37:55;;;;;;;12.18;8.20;;;2.40;99.90;;;;;;4932454;29;20040;-80
2023/01/22 12:40:20;;;;;;;10.23;7.55;;;2.40;99.90;;;;;;4923108;29;20863;-80
2023/01/22 12:42:51;;;;;;;10.85;7.18;;;2.50;99.90;;;;;;4954870;28;20129;-79
2023/01/22 12:45:45;;;;;;;10.75;7.38;;;2.50;99.90;;;;;;4910563;29;20137;-80
2023/01/22 12:48:33;;;;;;;11.73;7.47;;;2.50;99.90;;;;;;4952098;28;20062;-79
2023/01/22 12:50:59;;;;;;;11.05;7.50;;;2.40;99.90;;;;;;4954379;29;20046;-79
2023/01/22 12:53:27;;;;;;;12.57;8.65;;;2.40;99.90;;;;;;4932840;29;20464;-75
2023/01/22 12:56:03;;;;;;;11.68;8.10;;;2.40;99.90;;;;;;4934062;29;20157;-74
2023/01/22 12:58:40;;;;;;;14.27;9.10;;;2.60;99.90;;;;;;4916093;29;20087;-74
2023/01/22 13:01:21;;;;;;;13.13;8.73;;;2.60;99.90;;;;;;4922218;29;20492;-73
2023/01/22 13:04:05;;;;;;;14.13;9.35;;;2.60;99.90;;;;;;4943050;29;20126;-73
2023/01/22 13:06:33;;;;;;;14.82;9.88;;;2.80;99.90;;;;;;4928341;29;20369;-73
2023/01/22 13:08:59;;;;;;;13.50;9.90;;;2.70;99.90;;;;;;4952764;28;20043;-72
2023/01/22 13:11:36;;;;;;;12.75;9.23;;;2.60;99.90;;;;;;4920695;29;20043;-72
2023/01/22 13:14:27;;;;;;;12.60;8.17;;;2.60;99.90;;;;;;4934203;29;20046;-73
2023/01/22 13:16:55;;;;;;;12.40;8.98;;;2.80;99.90;;;;;;4958293;28;20291;-74